createdAt,value
2022-11-09T00:01:09.281Z,78.01
2022-11-09T00:03:38.793Z,78.28
2022-11-09T00:06:08.309Z,78.18
2022-11-09T00:08:39.321Z,78.45
2022-11-09T00:11:09.273Z,78.85
2022-11-09T00:13:38.819Z,79.24
2022-11-09T00:16:12.022Z,79.52
2022-11-09T00:18:45.957Z,79.35
2022-11-09T00:21:16.234Z,79.48
2022-11-09T00:23:45.785Z,79.55
2022-11-09T00:26:16.840Z,79.95
2022-11-09T00:28:46.050Z,79.86
2022-11-09T00:31:19.069Z,80.36
2022-11-09T00:33:50.699Z,80.77
2022-11-09T00:36:20.643Z,81.41
2022-11-09T00:38:51.478Z,81.63
2022-11-09T00:41:20.927Z,81.39
2022-11-09T00:43:50.469Z,81.92
2022-11-09T00:46:22.686Z,82.46
2022-11-09T00:48:52.420Z,82.21
2022-11-09T00:51:21.943Z,82.21
2022-11-09T00:53:54.649Z,82.83
2022-11-09T00:56:24.584Z,82.98
2022-11-09T00:58:55.763Z,83.02
2022-11-09T01:01:27.861Z,83.46
2022-11-09T01:03:57.366Z,83.55
2022-11-09T01:06:27.592Z,83.30
2022-11-09T01:08:57.128Z,83.31
2022-11-09T01:11:26.856Z,83.56
2022-11-09T01:13:56.311Z,84.25
2022-11-09T01:16:28.421Z,85.35
2022-11-09T01:18:58.056Z,86.45
2022-11-09T01:21:27.762Z,86.68
2022-11-09T01:23:58.533Z,86.27
2022-11-09T01:26:28.129Z,86.45
2022-11-09T01:28:57.624Z,86.61
2022-11-09T01:31:29.723Z,85.41
2022-11-09T01:33:59.202Z,85.78
2022-11-09T01:36:28.660Z,85.41
2022-11-09T01:38:58.166Z,84.56
2022-11-09T01:41:28.614Z,85.03
2022-11-09T01:44:08.920Z,84.92
2022-11-09T01:46:43.591Z,84.08
2022-11-09T01:49:16.135Z,84.42
2022-11-09T01:51:46.809Z,84.94
2022-11-09T01:54:18.166Z,85.11
2022-11-09T01:56:47.727Z,84.88
2022-11-09T01:59:18.570Z,84.81
2022-11-09T02:01:50.658Z,85.42
2022-11-09T02:04:28.912Z,84.96
2022-11-09T02:06:58.665Z,85.65
2022-11-09T02:09:29.658Z,87.61
2022-11-09T02:11:59.127Z,88.01
2022-11-09T02:14:29.108Z,87.90
2022-11-09T02:17:01.115Z,87.16
2022-11-09T02:19:30.619Z,86.58
2022-11-09T02:22:02.643Z,86.45
2022-11-09T02:24:32.102Z,86.19
2022-11-09T02:27:01.570Z,85.87
2022-11-09T02:29:32.153Z,85.67
2022-11-09T02:32:03.427Z,85.76
2022-11-09T02:34:33.180Z,85.80
2022-11-09T02:37:05.237Z,85.50
2022-11-09T02:39:34.719Z,85.78
2022-11-09T02:42:10.064Z,85.48
2022-11-09T02:44:41.440Z,85.70
2022-11-09T02:47:10.652Z,86.26
2022-11-09T02:49:40.139Z,85.87
2022-11-09T02:52:12.172Z,85.67
2022-11-09T02:54:41.606Z,85.71
2022-11-09T02:57:11.086Z,86.68
2022-11-09T02:59:40.578Z,87.49
2022-11-09T03:02:10.073Z,87.98
2022-11-09T03:04:39.545Z,87.58
2022-11-09T03:07:09.704Z,87.50
2022-11-09T03:09:41.835Z,86.44
2022-11-09T03:12:23.619Z,86.33
2022-11-09T03:14:53.077Z,86.38
2022-11-09T03:17:22.555Z,86.50
2022-11-09T03:19:52.017Z,86.18
2022-11-09T03:22:21.520Z,86.19
2022-11-09T03:24:53.549Z,86.05
2022-11-09T03:27:23.001Z,86.21
2022-11-09T03:29:52.474Z,86.28
2022-11-09T03:32:21.942Z,86.71
2022-11-09T03:34:51.804Z,86.66
2022-11-09T03:37:21.299Z,86.55
2022-11-09T03:39:53.579Z,86.29
2022-11-09T03:42:23.010Z,86.87
2022-11-09T03:44:52.562Z,86.80
2022-11-09T03:47:22.036Z,86.15
2022-11-09T03:49:51.500Z,85.98
2022-11-09T03:52:20.956Z,85.62
2022-11-09T03:54:52.977Z,86.28
2022-11-09T03:57:22.401Z,86.18
2022-11-09T03:59:51.849Z,86.28
2022-11-09T04:02:21.290Z,86.35
2022-11-09T04:04:50.738Z,86.15
2022-11-09T04:07:20.223Z,86.08
2022-11-09T04:09:49.754Z,86.18
2022-11-09T04:12:21.784Z,86.01
2022-11-09T04:14:51.243Z,86.11
2022-11-09T04:17:20.683Z,85.82
2022-11-09T04:19:50.178Z,85.95
2022-11-09T04:22:19.617Z,86.19
2022-11-09T04:24:49.151Z,86.19
2022-11-09T04:27:21.239Z,86.61
2022-11-09T04:29:50.717Z,86.77
2022-11-09T04:32:20.164Z,87.37
2022-11-09T04:34:49.627Z,88.13
2022-11-09T04:37:19.099Z,88.75
2022-11-09T04:39:48.583Z,89.76
2022-11-09T04:42:18.044Z,89.36
2022-11-09T04:44:50.106Z,88.16
2022-11-09T04:47:19.539Z,87.77
2022-11-09T04:49:49.004Z,87.96
2022-11-09T04:52:18.471Z,87.33
2022-11-09T04:54:47.881Z,87.18
2022-11-09T04:57:17.301Z,87.51
2022-11-09T04:59:46.747Z,87.02
2022-11-09T05:02:18.839Z,87.34
2022-11-09T05:04:48.278Z,87.80
2022-11-09T05:07:17.749Z,87.35
2022-11-09T05:09:47.232Z,87.98
2022-11-09T05:12:16.647Z,88.31
2022-11-09T05:14:46.088Z,88.53
2022-11-09T05:17:18.157Z,88.54
2022-11-09T05:19:48.862Z,89.04
2022-11-09T05:22:34.749Z,89.46
2022-11-09T05:25:04.252Z,89.88
2022-11-09T05:27:33.693Z,89.34
2022-11-09T05:30:03.155Z,88.54
2022-11-09T05:32:35.242Z,87.63
2022-11-09T05:35:04.814Z,87.21
2022-11-09T05:37:34.480Z,87.46
2022-11-09T05:40:04.072Z,87.32
2022-11-09T05:42:33.572Z,87.23
2022-11-09T05:45:28.012Z,87.23
2022-11-09T05:47:55.124Z,87.84
2022-11-09T05:50:24.579Z,87.24
2022-11-09T05:52:54.506Z,87.33
2022-11-09T05:55:23.970Z,87.92
2022-11-09T05:57:53.407Z,88.05
2022-11-09T06:00:24.047Z,87.84
2022-11-09T06:02:56.107Z,87.98
2022-11-09T06:05:25.766Z,87.66
2022-11-09T06:07:55.223Z,87.28
2022-11-09T06:10:24.699Z,87.09
2022-11-09T06:12:54.158Z,87.52
2022-11-09T06:15:24.230Z,87.14
2022-11-09T06:17:57.002Z,89.27
2022-11-09T06:20:26.789Z,88.99
2022-11-09T06:23:02.552Z,88.45
2022-11-09T06:25:33.648Z,88.29
2022-11-09T06:28:03.209Z,88.01
2022-11-09T06:30:32.712Z,87.99
2022-11-09T06:33:05.267Z,87.66
2022-11-09T06:35:34.940Z,87.39
2022-11-09T06:38:04.395Z,87.23
2022-11-09T06:40:33.845Z,87.23
2022-11-09T06:43:03.283Z,87.19
2022-11-09T06:45:33.072Z,87.06
2022-11-09T06:48:06.117Z,87.76
2022-11-09T06:50:36.058Z,87.77
2022-11-09T06:53:07.835Z,87.49
2022-11-09T06:55:37.672Z,87.28
2022-11-09T06:58:08.421Z,86.91
2022-11-09T07:00:37.953Z,86.72
2022-11-09T07:03:09.977Z,86.94
2022-11-09T07:05:40.868Z,87.25
2022-11-09T07:08:10.322Z,87.44
2022-11-09T07:10:39.771Z,87.27
2022-11-09T07:13:09.429Z,86.80
2022-11-09T07:15:39.142Z,86.94
2022-11-09T07:18:13.213Z,86.83
2022-11-09T07:20:42.754Z,86.55
2022-11-09T07:23:12.226Z,86.62
2022-11-09T07:25:41.723Z,86.40
2022-11-09T07:28:11.491Z,86.37
2022-11-09T07:30:41.042Z,86.32
2022-11-09T07:33:18.151Z,86.08
2022-11-09T07:35:47.681Z,85.80
2022-11-09T07:38:19.645Z,85.94
2022-11-09T07:40:49.099Z,86.01
2022-11-09T07:43:19.115Z,86.15
2022-11-09T07:45:48.800Z,86.12
2022-11-09T07:48:20.866Z,85.87
2022-11-09T07:50:50.326Z,86.03
2022-11-09T07:53:21.509Z,86.15
2022-11-09T07:55:59.276Z,86.06
2022-11-09T07:58:28.738Z,86.36
2022-11-09T08:00:59.346Z,85.99
2022-11-09T08:03:31.361Z,86.12
2022-11-09T08:06:03.621Z,86.04
2022-11-09T08:08:33.103Z,86.05
2022-11-09T08:11:02.562Z,85.88
2022-11-09T08:13:32.050Z,86.36
2022-11-09T08:16:03.715Z,86.13
2022-11-09T08:18:35.765Z,85.85
2022-11-09T08:21:05.892Z,85.27
2022-11-09T08:23:35.356Z,85.28
2022-11-09T08:26:05.165Z,85.48
2022-11-09T08:28:34.622Z,85.05
2022-11-09T08:31:05.539Z,85.34
2022-11-09T08:33:38.545Z,85.50
2022-11-09T08:36:12.660Z,86.69
2022-11-09T08:38:42.141Z,86.62
2022-11-09T08:41:13.626Z,85.98
2022-11-09T08:43:43.688Z,86.98
2022-11-09T08:46:13.379Z,87.14
2022-11-09T08:48:45.395Z,85.81
2022-11-09T08:51:14.867Z,85.80
2022-11-09T08:53:44.325Z,85.55
2022-11-09T08:56:18.379Z,83.59
2022-11-09T08:58:47.892Z,82.52
2022-11-09T09:01:17.859Z,81.15
2022-11-09T09:03:50.059Z,81.21
2022-11-09T09:06:19.545Z,80.50
2022-11-09T09:08:49.169Z,79.62
2022-11-09T09:11:18.846Z,80.01
2022-11-09T09:13:48.308Z,82.17
2022-11-09T09:16:18.419Z,82.99
2022-11-09T09:18:50.434Z,83.80
2022-11-09T09:21:19.884Z,83.09
2022-11-09T09:23:50.291Z,83.52
2022-11-09T09:26:19.807Z,83.43
2022-11-09T09:28:49.292Z,83.63
2022-11-09T09:31:19.191Z,83.71
2022-11-09T09:33:51.378Z,82.59
2022-11-09T09:36:21.858Z,82.51
2022-11-09T09:38:53.289Z,82.93
2022-11-09T09:41:25.679Z,82.11
2022-11-09T09:43:56.939Z,81.66
2022-11-09T09:46:28.151Z,80.39
2022-11-09T09:49:04.522Z,77.90
2022-11-09T09:51:36.870Z,78.63
2022-11-09T09:54:08.809Z,77.61
2022-11-09T09:56:41.060Z,77.83
2022-11-09T09:59:15.015Z,77.42
2022-11-09T10:01:46.324Z,77.91
2022-11-09T10:04:21.069Z,76.33
2022-11-09T10:07:03.360Z,76.06
2022-11-09T10:09:48.799Z,76.27
2022-11-09T10:12:21.074Z,73.49
2022-11-09T10:15:03.376Z,73.43
2022-11-09T10:17:38.413Z,74.34
2022-11-09T10:20:22.255Z,75.18
2022-11-09T10:22:56.563Z,74.23
2022-11-09T10:25:50.359Z,73.92
2022-11-09T10:28:18.462Z,72.52
2022-11-09T10:30:48.092Z,74.99
2022-11-09T10:33:20.875Z,72.88
2022-11-09T10:35:56.174Z,71.38
2022-11-09T10:38:27.401Z,71.94
2022-11-09T10:40:59.310Z,71.59
2022-11-09T10:43:29.025Z,71.63
2022-11-09T10:46:05.001Z,72.39
2022-11-09T10:48:35.697Z,71.93
2022-11-09T10:51:07.758Z,71.14
2022-11-09T10:53:37.438Z,69.22
2022-11-09T10:56:20.326Z,68.40
2022-11-09T10:58:51.739Z,68.91
2022-11-09T11:01:22.911Z,69.23
2022-11-09T11:03:53.480Z,68.34
2022-11-09T11:06:31.646Z,66.67
2022-11-09T11:09:16.933Z,67.08
2022-11-09T11:11:46.362Z,66.42
2022-11-09T11:14:22.668Z,67.12
2022-11-09T11:16:53.486Z,66.70
2022-11-09T11:19:37.050Z,67.24
2022-11-09T11:22:27.356Z,66.52
2022-11-09T11:24:58.295Z,65.33
2022-11-09T11:27:32.061Z,65.39
2022-11-09T11:30:10.454Z,65.10
2022-11-09T11:32:41.333Z,65.37
2022-11-09T11:35:17.347Z,65.04
2022-11-09T11:37:54.330Z,64.97
2022-11-09T11:40:28.195Z,64.71
2022-11-09T11:43:21.037Z,64.53
2022-11-09T11:45:53.901Z,63.93
2022-11-09T11:48:41.913Z,63.69
2022-11-09T11:51:12.428Z,63.51
2022-11-09T11:53:56.405Z,62.90
2022-11-09T11:56:28.737Z,63.81
2022-11-09T11:59:20.801Z,64.11
2022-11-09T12:01:58.071Z,64.35
2022-11-09T12:04:50.316Z,63.63
2022-11-09T12:07:27.397Z,65.18
2022-11-09T12:10:11.870Z,63.88
2022-11-09T12:12:45.127Z,63.60
2022-11-09T12:15:24.164Z,64.81
2022-11-09T12:17:59.116Z,63.83
2022-11-09T12:20:31.693Z,64.08
2022-11-09T12:23:11.599Z,64.66
2022-11-09T12:25:46.869Z,64.47
2022-11-09T12:28:27.837Z,64.74
2022-11-09T12:31:05.565Z,64.71
2022-11-09T12:33:43.643Z,63.90
2022-11-09T12:36:15.579Z,64.62
2022-11-09T12:38:53.445Z,64.39
2022-11-09T12:41:25.520Z,64.80
2022-11-09T12:43:56.354Z,64.10
2022-11-09T12:46:29.293Z,64.66
2022-11-09T12:48:58.922Z,64.21
2022-11-09T12:51:28.620Z,64.67
2022-11-09T12:53:58.189Z,64.90
2022-11-09T12:56:32.107Z,65.69
2022-11-09T12:59:22.381Z,67.18
2022-11-09T13:01:56.117Z,66.50
2022-11-09T13:04:26.374Z,67.22
2022-11-09T13:07:29.230Z,65.74
2022-11-09T13:09:59.628Z,65.60
2022-11-09T13:12:42.655Z,64.84
2022-11-09T13:15:20.345Z,64.89
2022-11-09T13:17:56.679Z,63.89
2022-11-09T13:20:55.504Z,65.04
2022-11-09T13:24:01.620Z,64.61
2022-11-09T13:26:58.882Z,65.22
2022-11-09T13:29:31.649Z,64.33
2022-11-09T13:32:06.455Z,64.06
2022-11-09T13:34:42.722Z,63.20
2022-11-09T13:37:39.957Z,62.02
2022-11-09T13:40:41.891Z,63.10
2022-11-09T13:43:19.971Z,62.68
2022-11-09T13:45:53.049Z,62.49
2022-11-09T13:48:45.750Z,62.97
2022-11-09T13:51:16.494Z,62.55
2022-11-09T13:53:57.503Z,62.03
2022-11-09T13:56:35.193Z,63.10
2022-11-09T13:59:09.460Z,62.09
2022-11-09T14:01:50.228Z,63.08
2022-11-09T14:04:27.342Z,62.87
2022-11-09T14:07:04.287Z,63.08
2022-11-09T14:09:37.752Z,61.89
2022-11-09T14:12:14.441Z,62.39
2022-11-09T14:15:13.939Z,61.02
2022-11-09T14:17:49.513Z,61.19
2022-11-09T14:20:24.359Z,62.70
2022-11-09T14:22:53.798Z,63.02
2022-11-09T14:25:23.925Z,62.88
2022-11-09T14:27:57.357Z,62.51
2022-11-09T14:30:28.014Z,62.67
2022-11-09T14:33:00.907Z,63.33
2022-11-09T14:35:33.512Z,62.51
2022-11-09T14:38:04.284Z,62.95
2022-11-09T14:40:34.864Z,62.64
2022-11-09T14:43:05.333Z,62.63
2022-11-09T14:45:34.853Z,63.12
2022-11-09T14:48:07.580Z,64.03
2022-11-09T14:50:39.200Z,64.18
2022-11-09T14:53:08.660Z,64.75
2022-11-09T14:55:39.930Z,65.23
2022-11-09T14:58:12.077Z,65.61
2022-11-09T15:11:33.670Z,67.61
2022-11-09T15:14:03.122Z,67.71
2022-11-09T15:16:33.489Z,68.29
2022-11-09T15:19:03.003Z,67.81
2022-11-09T15:21:37.881Z,67.78
2022-11-09T15:24:16.915Z,67.70
2022-11-09T15:26:49.515Z,69.65
2022-11-09T15:29:40.610Z,69.50
2022-11-09T15:32:16.151Z,70.24
2022-11-09T15:34:47.441Z,69.94
2022-11-09T15:37:28.106Z,68.18
2022-11-09T15:39:57.658Z,68.40
2022-11-09T15:42:29.811Z,69.15
2022-11-09T15:45:00.408Z,69.51
2022-11-09T15:47:35.422Z,69.48
2022-11-09T15:50:07.209Z,69.60
2022-11-09T15:52:36.707Z,69.34
2022-11-09T15:55:06.600Z,69.05
2022-11-09T15:57:38.674Z,69.54
2022-11-09T16:00:13.487Z,69.26
2022-11-09T16:02:46.077Z,69.00
2022-11-09T16:05:15.760Z,69.65
2022-11-09T16:07:51.422Z,69.02
2022-11-09T16:10:23.321Z,69.38
2022-11-09T16:12:56.070Z,69.19
2022-11-09T16:15:25.626Z,69.92
2022-11-09T16:17:55.251Z,69.16
2022-11-09T16:20:24.763Z,69.12
2022-11-09T16:22:54.251Z,69.42
2022-11-09T16:25:23.849Z,69.42
2022-11-09T16:27:56.210Z,69.73
2022-11-09T16:30:25.710Z,69.55
2022-11-09T16:32:55.656Z,70.04
2022-11-09T16:35:27.802Z,70.72
2022-11-09T16:37:58.111Z,70.65
2022-11-09T16:40:29.037Z,70.51
2022-11-09T16:43:01.834Z,70.56
2022-11-09T16:45:33.668Z,69.08
2022-11-09T16:48:03.284Z,68.78
2022-11-09T16:50:32.767Z,69.77
2022-11-09T16:53:02.226Z,69.98
2022-11-09T16:55:31.826Z,70.06
2022-11-09T16:58:04.398Z,70.61
2022-11-09T17:00:55.706Z,70.45
2022-11-09T17:03:23.334Z,70.88
2022-11-09T17:05:52.806Z,71.24
2022-11-09T17:08:22.873Z,70.61
2022-11-09T17:10:52.619Z,70.57
2022-11-09T17:13:24.693Z,70.09
2022-11-09T17:15:54.612Z,69.63
2022-11-09T17:18:24.137Z,70.09
2022-11-09T17:20:53.699Z,69.58
2022-11-09T17:23:23.168Z,70.43
2022-11-09T17:25:59.164Z,70.48
2022-11-09T17:28:31.236Z,70.49
2022-11-09T17:31:00.696Z,70.58
2022-11-09T17:33:30.157Z,70.77
2022-11-09T17:36:02.729Z,69.95
2022-11-09T17:38:32.243Z,70.57
2022-11-09T17:41:06.013Z,70.63
2022-11-09T17:43:42.443Z,71.42
2022-11-09T17:46:13.545Z,71.00
2022-11-09T17:48:43.149Z,70.44
2022-11-09T17:51:12.879Z,70.11
2022-11-09T17:53:42.439Z,70.42
2022-11-09T17:56:12.503Z,69.48
2022-11-09T17:58:45.576Z,69.56
2022-11-09T18:01:16.022Z,69.84
2022-11-09T18:03:45.742Z,70.24
2022-11-09T18:06:16.005Z,70.02
2022-11-09T18:08:45.506Z,70.26
2022-11-09T18:11:15.044Z,70.34
2022-11-09T18:13:47.235Z,70.49
2022-11-09T18:16:18.032Z,70.80
2022-11-09T18:18:47.555Z,70.23
2022-11-09T18:21:18.203Z,70.34
2022-11-09T18:23:48.051Z,70.55
2022-11-09T18:26:17.563Z,70.03
2022-11-09T18:28:49.601Z,69.77
2022-11-09T18:31:19.179Z,69.51
2022-11-09T18:33:48.710Z,69.52
2022-11-09T18:36:19.761Z,69.56
2022-11-09T18:38:51.182Z,68.90
2022-11-09T18:41:21.965Z,69.34
2022-11-09T18:43:54.260Z,69.80
2022-11-09T18:46:23.965Z,69.80
2022-11-09T18:48:53.656Z,69.91
2022-11-09T18:51:23.385Z,69.55
2022-11-09T18:53:52.863Z,70.13
2022-11-09T18:56:24.540Z,69.72
2022-11-09T18:58:57.965Z,70.25
2022-11-09T19:01:27.687Z,70.58
2022-11-09T19:03:59.745Z,70.16
2022-11-09T19:06:29.519Z,70.35
2022-11-09T19:09:11.469Z,70.48
2022-11-09T19:11:40.954Z,69.86
2022-11-09T19:14:13.199Z,69.32
2022-11-09T19:16:42.655Z,70.07
2022-11-09T19:19:14.057Z,70.16
2022-11-09T19:21:44.400Z,70.47
2022-11-09T19:24:14.777Z,70.58
2022-11-09T19:26:44.201Z,70.30
2022-11-09T19:29:16.997Z,69.67
2022-11-09T19:31:47.215Z,69.45
2022-11-09T19:34:17.612Z,69.66
2022-11-09T19:36:47.416Z,69.95
2022-11-09T19:39:17.071Z,69.10
2022-11-09T19:41:46.606Z,69.19
2022-11-09T19:44:19.096Z,68.90
2022-11-09T19:46:48.619Z,68.58
2022-11-09T19:49:18.045Z,68.86
2022-11-09T19:51:47.758Z,68.85
2022-11-09T19:54:17.191Z,68.40
2022-11-09T19:56:46.663Z,68.43
2022-11-09T19:59:20.777Z,68.01
2022-11-09T20:01:50.459Z,68.27
2022-11-09T20:04:19.885Z,68.63
2022-11-09T20:06:49.349Z,68.76
2022-11-09T20:09:18.835Z,68.29
2022-11-09T20:12:00.918Z,68.46
2022-11-09T20:14:32.969Z,67.81
2022-11-09T20:17:03.692Z,67.59
2022-11-09T20:19:33.286Z,67.50
2022-11-09T20:22:02.954Z,66.82
2022-11-09T20:24:32.395Z,67.20
2022-11-09T20:27:02.072Z,67.93
2022-11-09T20:29:34.144Z,68.49
2022-11-09T20:32:03.607Z,67.85
2022-11-09T20:34:33.030Z,67.30
2022-11-09T20:37:02.487Z,67.47
2022-11-09T20:39:31.956Z,67.53
2022-11-09T20:42:01.426Z,68.05
2022-11-09T20:44:30.885Z,67.54
2022-11-09T20:47:02.927Z,67.62
2022-11-09T20:49:32.391Z,67.15
2022-11-09T20:52:01.853Z,67.48
2022-11-09T20:54:31.278Z,66.78
2022-11-09T20:57:00.749Z,66.99
2022-11-09T20:59:30.173Z,67.33
2022-11-09T21:02:02.250Z,67.54
2022-11-09T21:04:31.940Z,67.61
2022-11-09T21:07:01.606Z,66.97
2022-11-09T21:09:31.108Z,66.36
2022-11-09T21:12:12.839Z,66.59
2022-11-09T21:14:42.295Z,66.64
2022-11-09T21:17:16.091Z,66.72
2022-11-09T21:19:45.528Z,66.91
2022-11-09T21:22:15.236Z,67.54
2022-11-09T21:24:57.165Z,67.40
2022-11-09T21:27:39.937Z,67.34
2022-11-09T21:30:12.680Z,66.26
2022-11-09T21:32:44.777Z,66.27
2022-11-09T21:35:14.294Z,66.98
2022-11-09T21:37:43.736Z,66.71
2022-11-09T21:40:14.071Z,67.01
2022-11-09T21:42:43.508Z,67.12
2022-11-09T21:45:13.236Z,67.77
2022-11-09T21:47:45.302Z,68.47
2022-11-09T21:50:14.768Z,68.19
2022-11-09T21:52:44.465Z,67.20
2022-11-09T21:55:13.942Z,67.42
2022-11-09T21:57:43.402Z,67.43
2022-11-09T22:00:14.272Z,68.16
2022-11-09T22:02:46.336Z,68.17
2022-11-09T22:05:21.735Z,67.98
2022-11-09T22:07:52.302Z,67.95
2022-11-09T22:10:21.907Z,67.65
2022-11-09T22:13:03.838Z,68.11
2022-11-09T22:15:45.787Z,67.56
2022-11-09T22:18:38.090Z,67.63
2022-11-09T22:21:05.037Z,67.23
2022-11-09T22:23:35.327Z,67.25
2022-11-09T22:26:04.792Z,67.51
2022-11-09T22:28:34.912Z,67.44
2022-11-09T22:31:04.347Z,67.58
2022-11-09T22:33:36.440Z,67.93
2022-11-09T22:36:07.197Z,68.10
2022-11-09T22:38:36.695Z,67.90
2022-11-09T22:41:07.248Z,67.89
2022-11-09T22:43:36.768Z,67.79
2022-11-09T22:46:06.734Z,67.12
2022-11-09T22:48:39.143Z,66.41
2022-11-09T22:51:08.993Z,66.43
2022-11-09T22:53:38.470Z,67.11
2022-11-09T22:56:08.382Z,67.02
2022-11-09T22:58:37.850Z,67.24
2022-11-09T23:01:09.113Z,66.95
2022-11-09T23:03:41.208Z,67.34
2022-11-09T23:06:11.713Z,67.51
2022-11-09T23:08:41.367Z,67.80
2022-11-09T23:11:13.363Z,68.20
2022-11-09T23:13:43.501Z,68.51
2022-11-09T23:16:13.633Z,68.28
2022-11-09T23:18:55.302Z,68.33
2022-11-09T23:21:29.374Z,68.51
2022-11-09T23:23:59.563Z,68.48
2022-11-09T23:26:26.541Z,68.73
2022-11-09T23:28:56.090Z,68.67
2022-11-09T23:31:27.069Z,68.31
2022-11-09T23:33:59.946Z,68.34
2022-11-09T23:36:29.511Z,68.45
2022-11-09T23:38:59.186Z,68.51
2022-11-09T23:41:28.609Z,68.67
2022-11-09T23:43:58.401Z,68.74
2022-11-09T23:46:27.855Z,69.11
2022-11-09T23:48:59.906Z,69.11
2022-11-09T23:51:29.336Z,69.82
2022-11-09T23:53:58.805Z,69.49
2022-11-09T23:56:28.243Z,69.74
2022-11-09T23:58:57.727Z,69.91
